sensor_id;sensor_type;location;lat;lon;timestamp;temperature;humidity
71627;DHT22;59475;52.464;13.590;2022-10-16T00:02:06;13.43;98.66
71627;DHT22;59475;52.464;13.590;2022-10-16T00:04:31;13.47;98.43
71627;DHT22;59475;52.464;13.590;2022-10-16T00:06:56;13.47;98.29
71627;DHT22;59475;52.464;13.590;2022-10-16T00:09:21;13.45;98.15
71627;DHT22;59475;52.464;13.590;2022-10-16T00:11:47;13.49;98.14
71627;DHT22;59475;52.464;13.590;2022-10-16T00:14:14;13.47;98.15
71627;DHT22;59475;52.464;13.590;2022-10-16T00:16:40;13.55;98.09
71627;DHT22;59475;52.464;13.590;2022-10-16T00:19:05;13.57;98.08
71627;DHT22;59475;52.464;13.590;2022-10-16T00:21:31;13.65;97.92
71627;DHT22;59475;52.464;13.590;2022-10-16T00:24:05;13.63;97.85
71627;DHT22;59475;52.464;13.590;2022-10-16T00:26:32;13.67;97.80
71627;DHT22;59475;52.464;13.590;2022-10-16T00:28:57;13.71;97.48
71627;DHT22;59475;52.464;13.590;2022-10-16T00:31:23;13.73;97.48
71627;DHT22;59475;52.464;13.590;2022-10-16T00:33:49;13.73;97.47
71627;DHT22;59475;52.464;13.590;2022-10-16T00:36:17;13.74;97.56
71627;DHT22;59475;52.464;13.590;2022-10-16T00:38:42;13.73;97.42
71627;DHT22;59475;52.464;13.590;2022-10-16T00:41:11;13.74;97.37
71627;DHT22;59475;52.464;13.590;2022-10-16T00:43:49;13.77;97.39
71627;DHT22;59475;52.464;13.590;2022-10-16T00:51:22;13.85;97.44
71627;DHT22;59475;52.464;13.590;2022-10-16T00:53:49;13.87;97.53
71627;DHT22;59475;52.464;13.590;2022-10-16T00:56:14;13.88;97.40
71627;DHT22;59475;52.464;13.590;2022-10-16T00:58:40;13.95;97.31
71627;DHT22;59475;52.464;13.590;2022-10-16T01:01:05;14.00;97.20
71627;DHT22;59475;52.464;13.590;2022-10-16T01:03:35;14.00;97.14
71627;DHT22;59475;52.464;13.590;2022-10-16T01:08:52;13.98;97.12
71627;DHT22;59475;52.464;13.590;2022-10-16T01:14:13;13.94;97.05
71627;DHT22;59475;52.464;13.590;2022-10-16T01:16:44;13.93;97.14
71627;DHT22;59475;52.464;13.590;2022-10-16T01:21:58;13.90;97.09
71627;DHT22;59475;52.464;13.590;2022-10-16T01:24:38;13.87;97.04
71627;DHT22;59475;52.464;13.590;2022-10-16T01:27:21;13.81;97.04
71627;DHT22;59475;52.464;13.590;2022-10-16T01:37:35;13.67;97.51
71627;DHT22;59475;52.464;13.590;2022-10-16T01:40:06;13.65;97.66
71627;DHT22;59475;52.464;13.590;2022-10-16T01:42:36;13.71;97.69
71627;DHT22;59475;52.464;13.590;2022-10-16T01:45:05;13.67;97.78
71627;DHT22;59475;52.464;13.590;2022-10-16T01:47:33;13.70;97.79
71627;DHT22;59475;52.464;13.590;2022-10-16T01:50:02;13.71;97.89
71627;DHT22;59475;52.464;13.590;2022-10-16T01:52:32;13.71;97.83
71627;DHT22;59475;52.464;13.590;2022-10-16T01:55:00;13.70;97.86
71627;DHT22;59475;52.464;13.590;2022-10-16T01:57:28;13.73;97.96
71627;DHT22;59475;52.464;13.590;2022-10-16T01:59:56;13.77;97.90
71627;DHT22;59475;52.464;13.590;2022-10-16T02:02:26;13.76;97.74
71627;DHT22;59475;52.464;13.590;2022-10-16T02:04:58;13.76;97.82
71627;DHT22;59475;52.464;13.590;2022-10-16T02:07:26;13.83;97.78
71627;DHT22;59475;52.464;13.590;2022-10-16T02:09:52;13.83;97.79
71627;DHT22;59475;52.464;13.590;2022-10-16T02:12:28;13.91;97.76
71627;DHT22;59475;52.464;13.590;2022-10-16T02:14:55;13.98;97.48
71627;DHT22;59475;52.464;13.590;2022-10-16T02:17:21;14.03;97.28
71627;DHT22;59475;52.464;13.590;2022-10-16T02:19:48;14.00;97.21
71627;DHT22;59475;52.464;13.590;2022-10-16T02:22:42;13.97;97.36
71627;DHT22;59475;52.464;13.590;2022-10-16T02:25:20;14.04;97.20
71627;DHT22;59475;52.464;13.590;2022-10-16T02:30:32;14.04;97.24
71627;DHT22;59475;52.464;13.590;2022-10-16T02:33:00;14.08;97.16
71627;DHT22;59475;52.464;13.590;2022-10-16T02:35:27;14.14;96.99
71627;DHT22;59475;52.464;13.590;2022-10-16T02:37:54;14.10;97.06
71627;DHT22;59475;52.464;13.590;2022-10-16T02:40:20;14.11;97.01
71627;DHT22;59475;52.464;13.590;2022-10-16T02:42:52;14.11;96.98
71627;DHT22;59475;52.464;13.590;2022-10-16T02:45:19;14.12;96.94
71627;DHT22;59475;52.464;13.590;2022-10-16T02:47:44;14.11;96.87
71627;DHT22;59475;52.464;13.590;2022-10-16T02:50:09;14.05;96.90
71627;DHT22;59475;52.464;13.590;2022-10-16T02:52:35;14.08;97.02
71627;DHT22;59475;52.464;13.590;2022-10-16T02:55:00;14.04;97.09
71627;DHT22;59475;52.464;13.590;2022-10-16T02:57:26;14.01;97.09
71627;DHT22;59475;52.464;13.590;2022-10-16T02:59:51;14.03;97.25
71627;DHT22;59475;52.464;13.590;2022-10-16T03:02:17;14.01;97.31
71627;DHT22;59475;52.464;13.590;2022-10-16T03:04:42;14.03;97.35
71627;DHT22;59475;52.464;13.590;2022-10-16T03:07:07;14.03;97.35
71627;DHT22;59475;52.464;13.590;2022-10-16T03:09:33;14.08;97.30
71627;DHT22;59475;52.464;13.590;2022-10-16T03:11:58;14.04;97.25
71627;DHT22;59475;52.464;13.590;2022-10-16T03:14:24;14.03;97.14
71627;DHT22;59475;52.464;13.590;2022-10-16T03:16:49;14.04;97.14
71627;DHT22;59475;52.464;13.590;2022-10-16T03:19:17;14.07;97.10
71627;DHT22;59475;52.464;13.590;2022-10-16T03:21:42;14.04;97.05
71627;DHT22;59475;52.464;13.590;2022-10-16T03:24:08;14.03;97.14
71627;DHT22;59475;52.464;13.590;2022-10-16T03:26:33;14.01;97.18
71627;DHT22;59475;52.464;13.590;2022-10-16T03:28:59;14.07;97.28
71627;DHT22;59475;52.464;13.590;2022-10-16T03:31:24;14.07;97.20
71627;DHT22;59475;52.464;13.590;2022-10-16T03:33:49;14.01;97.08
71627;DHT22;59475;52.464;13.590;2022-10-16T03:36:15;13.98;97.11
71627;DHT22;59475;52.464;13.590;2022-10-16T03:38:40;13.93;97.06
71627;DHT22;59475;52.464;13.590;2022-10-16T03:41:05;13.87;97.28
71627;DHT22;59475;52.464;13.590;2022-10-16T03:43:32;13.85;97.42
71627;DHT22;59475;52.464;13.590;2022-10-16T03:45:58;13.81;97.46
71627;DHT22;59475;52.464;13.590;2022-10-16T03:48:23;13.80;97.59
71627;DHT22;59475;52.464;13.590;2022-10-16T03:50:48;13.77;97.72
71627;DHT22;59475;52.464;13.590;2022-10-16T03:53:15;13.76;97.57
71627;DHT22;59475;52.464;13.590;2022-10-16T03:55:42;13.77;97.91
71627;DHT22;59475;52.464;13.590;2022-10-16T03:58:07;13.80;97.87
71627;DHT22;59475;52.464;13.590;2022-10-16T04:00:32;13.85;97.83
71627;DHT22;59475;52.464;13.590;2022-10-16T04:02:58;13.97;97.59
71627;DHT22;59475;52.464;13.590;2022-10-16T04:05:23;13.98;97.38
71627;DHT22;59475;52.464;13.590;2022-10-16T04:07:49;13.98;97.32
71627;DHT22;59475;52.464;13.590;2022-10-16T04:10:14;14.00;97.30
71627;DHT22;59475;52.464;13.590;2022-10-16T04:12:39;13.98;97.26
71627;DHT22;59475;52.464;13.590;2022-10-16T04:15:05;13.97;97.24
71627;DHT22;59475;52.464;13.590;2022-10-16T04:17:30;14.00;97.16
71627;DHT22;59475;52.464;13.590;2022-10-16T04:19:56;13.98;97.20
71627;DHT22;59475;52.464;13.590;2022-10-16T04:22:21;14.01;97.18
71627;DHT22;59475;52.464;13.590;2022-10-16T04:24:46;14.00;97.03
71627;DHT22;59475;52.464;13.590;2022-10-16T04:27:12;13.97;97.08
71627;DHT22;59475;52.464;13.590;2022-10-16T04:29:37;13.93;97.22
71627;DHT22;59475;52.464;13.590;2022-10-16T04:32:02;13.93;97.26
71627;DHT22;59475;52.464;13.590;2022-10-16T04:34:28;13.91;97.22
71627;DHT22;59475;52.464;13.590;2022-10-16T04:36:53;13.88;97.29
71627;DHT22;59475;52.464;13.590;2022-10-16T04:39:18;13.84;97.32
71627;DHT22;59475;52.464;13.590;2022-10-16T04:41:44;13.83;97.53
71627;DHT22;59475;52.464;13.590;2022-10-16T04:44:09;13.83;97.54
71627;DHT22;59475;52.464;13.590;2022-10-16T04:46:34;13.76;97.40
71627;DHT22;59475;52.464;13.590;2022-10-16T04:48:59;13.76;97.35
71627;DHT22;59475;52.464;13.590;2022-10-16T04:51:25;13.70;97.42
71627;DHT22;59475;52.464;13.590;2022-10-16T04:53:51;13.65;97.34
71627;DHT22;59475;52.464;13.590;2022-10-16T04:56:16;13.60;97.40
71627;DHT22;59475;52.464;13.590;2022-10-16T04:58:42;13.56;97.42
71627;DHT22;59475;52.464;13.590;2022-10-16T05:01:07;13.49;97.45
71627;DHT22;59475;52.464;13.590;2022-10-16T05:03:32;13.46;97.35
71627;DHT22;59475;52.464;13.590;2022-10-16T05:05:58;13.39;97.44
71627;DHT22;59475;52.464;13.590;2022-10-16T05:08:23;13.35;97.47
71627;DHT22;59475;52.464;13.590;2022-10-16T05:10:48;13.35;97.65
71627;DHT22;59475;52.464;13.590;2022-10-16T05:13:14;13.28;97.96
71627;DHT22;59475;52.464;13.590;2022-10-16T05:15:39;13.23;97.79
71627;DHT22;59475;52.464;13.590;2022-10-16T05:18:05;13.21;97.57
71627;DHT22;59475;52.464;13.590;2022-10-16T05:20:30;13.16;97.87
71627;DHT22;59475;52.464;13.590;2022-10-16T05:22:55;13.08;97.76
71627;DHT22;59475;52.464;13.590;2022-10-16T05:25:21;13.05;98.10
71627;DHT22;59475;52.464;13.590;2022-10-16T05:27:49;13.07;98.33
71627;DHT22;59475;52.464;13.590;2022-10-16T05:30:16;13.05;98.23
71627;DHT22;59475;52.464;13.590;2022-10-16T05:32:46;13.04;98.51
71627;DHT22;59475;52.464;13.590;2022-10-16T05:35:11;13.04;98.61
71627;DHT22;59475;52.464;13.590;2022-10-16T05:37:37;13.02;98.58
71627;DHT22;59475;52.464;13.590;2022-10-16T05:40:02;13.02;98.62
71627;DHT22;59475;52.464;13.590;2022-10-16T05:42:29;13.07;98.74
71627;DHT22;59475;52.464;13.590;2022-10-16T05:44:54;13.12;98.81
71627;DHT22;59475;52.464;13.590;2022-10-16T05:47:19;13.14;98.72
71627;DHT22;59475;52.464;13.590;2022-10-16T05:49:46;13.18;98.84
71627;DHT22;59475;52.464;13.590;2022-10-16T05:52:11;13.21;98.88
71627;DHT22;59475;52.464;13.590;2022-10-16T05:54:36;13.22;98.94
71627;DHT22;59475;52.464;13.590;2022-10-16T05:57:02;13.25;98.93
71627;DHT22;59475;52.464;13.590;2022-10-16T05:59:27;13.30;98.91
71627;DHT22;59475;52.464;13.590;2022-10-16T06:01:52;13.30;98.90
71627;DHT22;59475;52.464;13.590;2022-10-16T06:04:18;13.32;98.87
71627;DHT22;59475;52.464;13.590;2022-10-16T06:06:44;13.36;98.85
71627;DHT22;59475;52.464;13.590;2022-10-16T06:09:09;13.39;98.75
71627;DHT22;59475;52.464;13.590;2022-10-16T06:11:36;13.43;98.68
71627;DHT22;59475;52.464;13.590;2022-10-16T06:14:02;13.49;98.70
71627;DHT22;59475;52.464;13.590;2022-10-16T06:16:31;13.57;98.52
71627;DHT22;59475;52.464;13.590;2022-10-16T06:18:57;13.66;98.55
71627;DHT22;59475;52.464;13.590;2022-10-16T06:21:25;13.77;98.32
71627;DHT22;59475;52.464;13.590;2022-10-16T06:23:51;13.83;98.19
71627;DHT22;59475;52.464;13.590;2022-10-16T06:26:19;13.88;97.99
71627;DHT22;59475;52.464;13.590;2022-10-16T06:28:45;13.94;97.94
71627;DHT22;59475;52.464;13.590;2022-10-16T06:31:12;14.00;97.82
71627;DHT22;59475;52.464;13.590;2022-10-16T06:33:38;14.03;97.60
71627;DHT22;59475;52.464;13.590;2022-10-16T06:36:10;14.04;97.58
71627;DHT22;59475;52.464;13.590;2022-10-16T06:38:36;14.07;97.49
71627;DHT22;59475;52.464;13.590;2022-10-16T06:41:02;14.10;97.29
71627;DHT22;59475;52.464;13.590;2022-10-16T06:43:29;14.14;97.24
71627;DHT22;59475;52.464;13.590;2022-10-16T06:45:58;14.15;97.20
71627;DHT22;59475;52.464;13.590;2022-10-16T06:48:24;14.15;97.08
71627;DHT22;59475;52.464;13.590;2022-10-16T06:51:00;14.18;97.07
71627;DHT22;59475;52.464;13.590;2022-10-16T06:53:27;14.24;96.86
71627;DHT22;59475;52.464;13.590;2022-10-16T06:55:53;14.29;96.89
71627;DHT22;59475;52.464;13.590;2022-10-16T06:58:19;14.31;96.87
71627;DHT22;59475;52.464;13.590;2022-10-16T07:00:44;14.36;96.76
71627;DHT22;59475;52.464;13.590;2022-10-16T07:03:10;14.39;96.80
71627;DHT22;59475;52.464;13.590;2022-10-16T07:05:39;14.46;96.65
71627;DHT22;59475;52.464;13.590;2022-10-16T07:08:05;14.49;96.66
71627;DHT22;59475;52.464;13.590;2022-10-16T07:10:31;14.53;96.64
71627;DHT22;59475;52.464;13.590;2022-10-16T07:12:56;14.58;96.71
71627;DHT22;59475;52.464;13.590;2022-10-16T07:15:21;14.63;96.56
71627;DHT22;59475;52.464;13.590;2022-10-16T07:17:47;14.72;96.54
71627;DHT22;59475;52.464;13.590;2022-10-16T07:20:12;14.88;95.96
71627;DHT22;59475;52.464;13.590;2022-10-16T07:22:37;15.03;95.65
71627;DHT22;59475;52.464;13.590;2022-10-16T07:25:03;15.20;95.72
71627;DHT22;59475;52.464;13.590;2022-10-16T07:27:28;15.42;95.44
71627;DHT22;59475;52.464;13.590;2022-10-16T07:29:54;15.65;95.68
71627;DHT22;59475;52.464;13.590;2022-10-16T07:32:19;15.90;94.29
71627;DHT22;59475;52.464;13.590;2022-10-16T07:34:44;16.16;92.66
71627;DHT22;59475;52.464;13.590;2022-10-16T07:37:10;16.32;91.85
71627;DHT22;59475;52.464;13.590;2022-10-16T07:39:36;16.47;92.34
71627;DHT22;59475;52.464;13.590;2022-10-16T07:42:01;16.61;90.80
71627;DHT22;59475;52.464;13.590;2022-10-16T07:44:27;16.71;90.95
71627;DHT22;59475;52.464;13.590;2022-10-16T07:46:52;16.83;91.23
71627;DHT22;59475;52.464;13.590;2022-10-16T07:49:17;16.86;89.61
71627;DHT22;59475;52.464;13.590;2022-10-16T07:51:43;16.90;90.07
71627;DHT22;59475;52.464;13.590;2022-10-16T07:54:09;16.82;89.00
71627;DHT22;59475;52.464;13.590;2022-10-16T07:56:35;16.90;88.86
71627;DHT22;59475;52.464;13.590;2022-10-16T07:59:00;16.79;89.47
71627;DHT22;59475;52.464;13.590;2022-10-16T08:01:25;16.75;89.69
71627;DHT22;59475;52.464;13.590;2022-10-16T08:03:52;16.69;89.52
71627;DHT22;59475;52.464;13.590;2022-10-16T08:06:20;16.65;89.58
71627;DHT22;59475;52.464;13.590;2022-10-16T08:08:46;16.66;89.92
71627;DHT22;59475;52.464;13.590;2022-10-16T08:11:12;16.64;89.78
71627;DHT22;59475;52.464;13.590;2022-10-16T08:13:39;16.65;89.70
71627;DHT22;59475;52.464;13.590;2022-10-16T08:16:04;16.71;89.78
71627;DHT22;59475;52.464;13.590;2022-10-16T08:18:40;16.77;89.81
71627;DHT22;59475;52.464;13.590;2022-10-16T08:21:07;16.82;89.20
71627;DHT22;59475;52.464;13.590;2022-10-16T08:23:33;16.90;89.06
71627;DHT22;59475;52.464;13.590;2022-10-16T08:26:04;16.96;89.23
71627;DHT22;59475;52.464;13.590;2022-10-16T08:28:30;16.99;88.35
71627;DHT22;59475;52.464;13.590;2022-10-16T08:30:55;16.97;88.85
71627;DHT22;59475;52.464;13.590;2022-10-16T08:33:22;17.02;88.78
71627;DHT22;59475;52.464;13.590;2022-10-16T08:35:53;17.07;88.23
71627;DHT22;59475;52.464;13.590;2022-10-16T08:38:19;17.26;88.58
71627;DHT22;59475;52.464;13.590;2022-10-16T08:40:45;17.40;86.88
71627;DHT22;59475;52.464;13.590;2022-10-16T08:43:19;17.57;87.16
71627;DHT22;59475;52.464;13.590;2022-10-16T08:46:15;17.65;86.19
71627;DHT22;59475;52.464;13.590;2022-10-16T08:48:49;17.79;85.57
71627;DHT22;59475;52.464;13.590;2022-10-16T08:51:32;17.79;85.02
71627;DHT22;59475;52.464;13.590;2022-10-16T08:54:01;17.81;85.23
71627;DHT22;59475;52.464;13.590;2022-10-16T08:56:27;17.83;85.27
71627;DHT22;59475;52.464;13.590;2022-10-16T08:58:53;17.85;84.72
71627;DHT22;59475;52.464;13.590;2022-10-16T09:01:21;17.83;84.61
71627;DHT22;59475;52.464;13.590;2022-10-16T09:06:45;17.82;84.52
71627;DHT22;59475;52.464;13.590;2022-10-16T09:11:59;17.75;84.33
71627;DHT22;59475;52.464;13.590;2022-10-16T09:20:27;18.48;81.67
71627;DHT22;59475;52.464;13.590;2022-10-16T09:23:10;18.73;80.76
71627;DHT22;59475;52.464;13.590;2022-10-16T09:25:39;18.89;79.88
71627;DHT22;59475;52.464;13.590;2022-10-16T09:28:04;18.98;79.64
71627;DHT22;59475;52.464;13.590;2022-10-16T09:30:30;19.12;78.46
71627;DHT22;59475;52.464;13.590;2022-10-16T09:32:57;19.17;78.54
71627;DHT22;59475;52.464;13.590;2022-10-16T09:35:37;19.30;78.19
71627;DHT22;59475;52.464;13.590;2022-10-16T09:38:02;19.15;78.08
71627;DHT22;59475;52.464;13.590;2022-10-16T09:40:28;19.28;77.79
71627;DHT22;59475;52.464;13.590;2022-10-16T09:43:07;19.34;77.85
71627;DHT22;59475;52.464;13.590;2022-10-16T09:45:36;19.54;76.95
71627;DHT22;59475;52.464;13.590;2022-10-16T09:48:11;19.65;76.36
71627;DHT22;59475;52.464;13.590;2022-10-16T09:50:37;20.04;75.11
71627;DHT22;59475;52.464;13.590;2022-10-16T09:53:14;20.40;73.83
71627;DHT22;59475;52.464;13.590;2022-10-16T09:55:50;20.81;72.58
71627;DHT22;59475;52.464;13.590;2022-10-16T09:58:15;20.78;71.47
71627;DHT22;59475;52.464;13.590;2022-10-16T10:00:42;20.54;72.77
71627;DHT22;59475;52.464;13.590;2022-10-16T10:03:30;20.51;72.38
71627;DHT22;59475;52.464;13.590;2022-10-16T10:06:06;20.37;72.17
71627;DHT22;59475;52.464;13.590;2022-10-16T10:08:32;20.16;72.30
71627;DHT22;59475;52.464;13.590;2022-10-16T10:10:57;20.23;72.69
71627;DHT22;59475;52.464;13.590;2022-10-16T10:13:24;19.99;73.36
71627;DHT22;59475;52.464;13.590;2022-10-16T10:15:51;19.95;73.25
71627;DHT22;59475;52.464;13.590;2022-10-16T10:18:18;19.89;74.12
71627;DHT22;59475;52.464;13.590;2022-10-16T10:20:45;19.92;73.81
71627;DHT22;59475;52.464;13.590;2022-10-16T10:23:24;19.96;73.98
71627;DHT22;59475;52.464;13.590;2022-10-16T10:33:54;20.00;73.76
71627;DHT22;59475;52.464;13.590;2022-10-16T10:39:04;19.82;72.89
71627;DHT22;59475;52.464;13.590;2022-10-16T10:56:14;20.37;71.82
71627;DHT22;59475;52.464;13.590;2022-10-16T10:58:54;20.48;69.90
71627;DHT22;59475;52.464;13.590;2022-10-16T11:04:33;20.70;69.23
71627;DHT22;59475;52.464;13.590;2022-10-16T11:07:03;21.05;68.12
71627;DHT22;59475;52.464;13.590;2022-10-16T11:09:36;21.05;67.36
71627;DHT22;59475;52.464;13.590;2022-10-16T11:12:18;20.87;67.32
71627;DHT22;59475;52.464;13.590;2022-10-16T11:14:58;20.74;67.20
71627;DHT22;59475;52.464;13.590;2022-10-16T11:17:33;20.81;67.53
71627;DHT22;59475;52.464;13.590;2022-10-16T11:20:20;21.11;66.77
71627;DHT22;59475;52.464;13.590;2022-10-16T11:22:54;21.53;65.91
71627;DHT22;59475;52.464;13.590;2022-10-16T11:25:24;21.73;64.24
71627;DHT22;59475;52.464;13.590;2022-10-16T11:30:57;21.70;63.52
71627;DHT22;59475;52.464;13.590;2022-10-16T11:33:32;21.60;63.73
71627;DHT22;59475;52.464;13.590;2022-10-16T11:41:24;20.98;64.36
71627;DHT22;59475;52.464;13.590;2022-10-16T11:46:40;20.87;65.27
71627;DHT22;59475;52.464;13.590;2022-10-16T11:49:15;20.85;64.85
71627;DHT22;59475;52.464;13.590;2022-10-16T11:51:48;20.92;65.63
71627;DHT22;59475;52.464;13.590;2022-10-16T11:54:26;21.02;63.90
71627;DHT22;59475;52.464;13.590;2022-10-16T11:56:59;21.22;63.23
71627;DHT22;59475;52.464;13.590;2022-10-16T12:00:07;21.38;62.95
71627;DHT22;59475;52.464;13.590;2022-10-16T12:02:57;21.50;62.22
71627;DHT22;59475;52.464;13.590;2022-10-16T12:05:31;21.53;62.09
71627;DHT22;59475;52.464;13.590;2022-10-16T12:08:06;21.36;62.68
71627;DHT22;59475;52.464;13.590;2022-10-16T12:10:33;21.22;62.82
71627;DHT22;59475;52.464;13.590;2022-10-16T12:13:03;21.03;63.05
71627;DHT22;59475;52.464;13.590;2022-10-16T12:15:31;20.96;63.18
71627;DHT22;59475;52.464;13.590;2022-10-16T12:17:57;20.94;62.76
71627;DHT22;59475;52.464;13.590;2022-10-16T12:20:31;20.92;62.61
71627;DHT22;59475;52.464;13.590;2022-10-16T12:23:00;20.91;62.63
71627;DHT22;59475;52.464;13.590;2022-10-16T12:25:34;20.94;62.16
71627;DHT22;59475;52.464;13.590;2022-10-16T12:28:05;20.87;63.12
71627;DHT22;59475;52.464;13.590;2022-10-16T12:30:34;20.94;62.94
71627;DHT22;59475;52.464;13.590;2022-10-16T12:33:03;21.02;62.75
71627;DHT22;59475;52.464;13.590;2022-10-16T12:35:33;21.19;63.24
71627;DHT22;59475;52.464;13.590;2022-10-16T12:38:07;21.33;61.33
71627;DHT22;59475;52.464;13.590;2022-10-16T12:40:35;21.25;60.25
71627;DHT22;59475;52.464;13.590;2022-10-16T12:45:45;21.19;60.88
71627;DHT22;59475;52.464;13.590;2022-10-16T12:48:22;21.19;61.38
71627;DHT22;59475;52.464;13.590;2022-10-16T12:50:47;21.15;60.93
71627;DHT22;59475;52.464;13.590;2022-10-16T12:53:24;21.03;60.14
71627;DHT22;59475;52.464;13.590;2022-10-16T13:01:34;21.02;61.45
71627;DHT22;59475;52.464;13.590;2022-10-16T13:07:01;21.01;60.85
71627;DHT22;59475;52.464;13.590;2022-10-16T13:09:43;21.08;61.02
71627;DHT22;59475;52.464;13.590;2022-10-16T13:17:59;20.77;61.16
71627;DHT22;59475;52.464;13.590;2022-10-16T13:21:16;20.56;61.60
71627;DHT22;59475;52.464;13.590;2022-10-16T13:28:52;20.29;62.68
71627;DHT22;59475;52.464;13.590;2022-10-16T13:31:22;20.27;62.98
71627;DHT22;59475;52.464;13.590;2022-10-16T13:33:54;20.34;62.24
71627;DHT22;59475;52.464;13.590;2022-10-16T13:36:35;20.41;61.96
71627;DHT22;59475;52.464;13.590;2022-10-16T13:39:19;20.47;61.24
71627;DHT22;59475;52.464;13.590;2022-10-16T13:41:45;20.56;62.04
71627;DHT22;59475;52.464;13.590;2022-10-16T13:44:15;20.60;61.65
71627;DHT22;59475;52.464;13.590;2022-10-16T13:46:43;20.70;61.41
71627;DHT22;59475;52.464;13.590;2022-10-16T13:49:14;20.75;60.47
71627;DHT22;59475;52.464;13.590;2022-10-16T13:51:40;20.75;60.26
71627;DHT22;59475;52.464;13.590;2022-10-16T13:54:09;20.75;59.90
71627;DHT22;59475;52.464;13.590;2022-10-16T13:56:36;20.71;60.10
71627;DHT22;59475;52.464;13.590;2022-10-16T13:59:22;20.57;59.73
71627;DHT22;59475;52.464;13.590;2022-10-16T14:01:48;20.47;61.22
71627;DHT22;59475;52.464;13.590;2022-10-16T14:04:14;20.43;60.71
71627;DHT22;59475;52.464;13.590;2022-10-16T14:06:42;20.34;61.25
71627;DHT22;59475;52.464;13.590;2022-10-16T14:09:12;20.22;61.78
71627;DHT22;59475;52.464;13.590;2022-10-16T14:11:48;20.19;62.33
71627;DHT22;59475;52.464;13.590;2022-10-16T14:14:14;20.22;62.09
71627;DHT22;59475;52.464;13.590;2022-10-16T14:16:42;20.26;62.05
71627;DHT22;59475;52.464;13.590;2022-10-16T14:19:28;20.33;62.17
71627;DHT22;59475;52.464;13.590;2022-10-16T14:21:55;20.32;61.13
71627;DHT22;59475;52.464;13.590;2022-10-16T14:24:32;20.34;61.71
71627;DHT22;59475;52.464;13.590;2022-10-16T14:26:58;20.37;61.57
71627;DHT22;59475;52.464;13.590;2022-10-16T14:29:25;20.34;61.82
71627;DHT22;59475;52.464;13.590;2022-10-16T14:31:56;20.34;62.59
71627;DHT22;59475;52.464;13.590;2022-10-16T14:36:52;20.15;62.35
71627;DHT22;59475;52.464;13.590;2022-10-16T14:39:20;20.15;62.98
71627;DHT22;59475;52.464;13.590;2022-10-16T14:41:50;20.06;63.37
71627;DHT22;59475;52.464;13.590;2022-10-16T14:44:28;19.98;62.94
71627;DHT22;59475;52.464;13.590;2022-10-16T14:46:54;19.95;63.28
71627;DHT22;59475;52.464;13.590;2022-10-16T14:49:21;19.93;63.33
71627;DHT22;59475;52.464;13.590;2022-10-16T14:51:48;19.92;63.48
71627;DHT22;59475;52.464;13.590;2022-10-16T14:54:17;19.85;63.92
71627;DHT22;59475;52.464;13.590;2022-10-16T14:56:53;19.75;64.48
71627;DHT22;59475;52.464;13.590;2022-10-16T15:01:46;19.65;64.44
71627;DHT22;59475;52.464;13.590;2022-10-16T15:04:12;19.63;63.63
71627;DHT22;59475;52.464;13.590;2022-10-16T15:06:38;19.57;64.28
71627;DHT22;59475;52.464;13.590;2022-10-16T15:09:03;19.47;64.50
71627;DHT22;59475;52.464;13.590;2022-10-16T15:11:31;19.44;64.58
71627;DHT22;59475;52.464;13.590;2022-10-16T15:13:57;19.40;65.26
71627;DHT22;59475;52.464;13.590;2022-10-16T15:16:22;19.31;65.69
71627;DHT22;59475;52.464;13.590;2022-10-16T15:18:48;19.26;65.85
71627;DHT22;59475;52.464;13.590;2022-10-16T15:21:24;19.15;65.91
71627;DHT22;59475;52.464;13.590;2022-10-16T15:23:50;19.09;66.52
71627;DHT22;59475;52.464;13.590;2022-10-16T15:26:16;18.99;66.68
71627;DHT22;59475;52.464;13.590;2022-10-16T15:28:41;18.86;66.68
71627;DHT22;59475;52.464;13.590;2022-10-16T15:31:06;18.79;66.56
71627;DHT22;59475;52.464;13.590;2022-10-16T15:33:31;18.73;66.75
71627;DHT22;59475;52.464;13.590;2022-10-16T15:36:00;18.71;66.34
71627;DHT22;59475;52.464;13.590;2022-10-16T15:38:26;18.68;65.98
71627;DHT22;59475;52.464;13.590;2022-10-16T15:40:52;18.55;66.83
71627;DHT22;59475;52.464;13.590;2022-10-16T15:43:17;18.48;66.94
71627;DHT22;59475;52.464;13.590;2022-10-16T15:45:44;18.37;66.95
71627;DHT22;59475;52.464;13.590;2022-10-16T15:48:11;18.27;67.31
71627;DHT22;59475;52.464;13.590;2022-10-16T15:50:38;18.14;67.59
71627;DHT22;59475;52.464;13.590;2022-10-16T15:53:03;18.07;67.85
71627;DHT22;59475;52.464;13.590;2022-10-16T15:55:29;17.96;68.39
71627;DHT22;59475;52.464;13.590;2022-10-16T15:57:54;17.85;68.73
71627;DHT22;59475;52.464;13.590;2022-10-16T16:00:20;17.72;69.09
71627;DHT22;59475;52.464;13.590;2022-10-16T16:02:51;17.62;69.52
71627;DHT22;59475;52.464;13.590;2022-10-16T16:05:17;17.48;70.53
71627;DHT22;59475;52.464;13.590;2022-10-16T16:07:44;17.37;71.17
71627;DHT22;59475;52.464;13.590;2022-10-16T16:10:11;17.23;71.84
71627;DHT22;59475;52.464;13.590;2022-10-16T16:12:37;17.06;73.23
71627;DHT22;59475;52.464;13.590;2022-10-16T16:15:07;16.82;75.07
71627;DHT22;59475;52.464;13.590;2022-10-16T16:17:34;16.68;74.58
71627;DHT22;59475;52.464;13.590;2022-10-16T16:19:59;16.54;74.83
71627;DHT22;59475;52.464;13.590;2022-10-16T16:22:25;16.38;75.47
71627;DHT22;59475;52.464;13.590;2022-10-16T16:24:51;16.21;76.24
71627;DHT22;59475;52.464;13.590;2022-10-16T16:27:16;16.06;76.66
71627;DHT22;59475;52.464;13.590;2022-10-16T16:29:41;15.94;77.22
71627;DHT22;59475;52.464;13.590;2022-10-16T16:32:07;15.82;78.17
71627;DHT22;59475;52.464;13.590;2022-10-16T16:34:32;15.65;78.91
71627;DHT22;59475;52.464;13.590;2022-10-16T16:36:57;15.44;80.43
71627;DHT22;59475;52.464;13.590;2022-10-16T16:39:23;15.28;80.26
71627;DHT22;59475;52.464;13.590;2022-10-16T16:41:49;15.14;80.32
71627;DHT22;59475;52.464;13.590;2022-10-16T16:44:15;15.00;80.73
71627;DHT22;59475;52.464;13.590;2022-10-16T16:46:42;14.87;81.46
71627;DHT22;59475;52.464;13.590;2022-10-16T16:49:09;14.76;81.66
71627;DHT22;59475;52.464;13.590;2022-10-16T16:51:36;14.63;81.88
71627;DHT22;59475;52.464;13.590;2022-10-16T16:54:02;14.52;82.71
71627;DHT22;59475;52.464;13.590;2022-10-16T16:56:27;14.42;83.14
71627;DHT22;59475;52.464;13.590;2022-10-16T16:58:55;14.31;83.23
71627;DHT22;59475;52.464;13.590;2022-10-16T17:01:22;14.20;83.48
71627;DHT22;59475;52.464;13.590;2022-10-16T17:03:49;14.10;83.80
71627;DHT22;59475;52.464;13.590;2022-10-16T17:06:17;14.01;83.77